Bayard, Ohio
Current Conditions -  °F | °C
As of 1:51 AM on Thursday 23 Oct 2014 (Local Time) from KCAK Reporting Station
Overcast Overcast  
Wind Chill: 44°   Ceiling: 4000
Heat Index: 47°   Visibility: 10mi
Dew Point: 43°   Wind: 6mph
Humidity: 86%   Direction: 350°N
Pressure: 30.18"   Gusts: NA
Location:  40.7427°N, 81.0929°W
Report Text: KCAK 230551Z 35005KT 10SM SCT010 OVC040 08/06 A3018 RMK AO2 SLP225 T00830061 10094 20050 56010 $
Loading
Personal Weather Stations






























Interactive Weather Map
Tropical Storm Tracking
New forecast layout! Learn more

10-Day Weather Forecast

Advertisements
Track Severe Weather on mobile